University Park, Iowa
Current Conditions -  °F | °C
As of 4:55 PM on Thursday 18 Dec 2014 (Local Time) from KOOA Reporting Station
Overcast Overcast  
Wind Chill: 26°   Ceiling: 6000
Heat Index: 26°   Visibility: 10mi
Dew Point: 22°   Wind: 3mph
Humidity: 85%   Direction: 70°ENE
Pressure: 30.25"   Gusts: NA
Location:  41.29°N, 92.62°W
Report Text: KOOA 182255Z AUTO 07003KT 10SM OVC060 M03/M05 A3025 RMK AO2 T10331055
Loading
Personal Weather Stations






























Interactive Weather Map New forecast layout! Learn more

10-Day Weather Forecast

Advertisements
Track Severe Weather on mobile